sensor_id;sensor_type;location;lat;lon;timestamp;pressure;altitude;pressure_sealevel;temperature;humidity
71151;BME280;59071;42.138;24.768;2023-04-02T00:02:30;98736.09;;;10.82;61.89
71151;BME280;59071;42.138;24.768;2023-04-02T00:07:47;98743.16;;;10.88;61.20
71151;BME280;59071;42.138;24.768;2023-04-02T00:10:29;98748.03;;;10.91;61.08
71151;BME280;59071;42.138;24.768;2023-04-02T00:13:00;98753.41;;;10.61;61.58
71151;BME280;59071;42.138;24.768;2023-04-02T00:15:26;98739.28;;;10.60;61.83
71151;BME280;59071;42.138;24.768;2023-04-02T00:17:51;98748.81;;;10.37;62.87
71151;BME280;59071;42.138;24.768;2023-04-02T00:20:17;98741.25;;;10.53;62.02
71151;BME280;59071;42.138;24.768;2023-04-02T00:22:44;98745.13;;;10.39;62.87
71151;BME280;59071;42.138;24.768;2023-04-02T00:25:11;98745.66;;;10.10;63.59
71151;BME280;59071;42.138;24.768;2023-04-02T00:27:37;98744.09;;;10.40;62.31
71151;BME280;59071;42.138;24.768;2023-04-02T00:30:03;98747.50;;;10.28;63.02
71151;BME280;59071;42.138;24.768;2023-04-02T00:32:31;98746.25;;;10.12;63.37
71151;BME280;59071;42.138;24.768;2023-04-02T00:34:58;98751.84;;;10.23;63.52
71151;BME280;59071;42.138;24.768;2023-04-02T00:37:24;98743.63;;;10.24;63.01
71151;BME280;59071;42.138;24.768;2023-04-02T00:40:01;98751.53;;;10.49;61.64
71151;BME280;59071;42.138;24.768;2023-04-02T00:42:31;98749.22;;;10.53;62.40
71151;BME280;59071;42.138;24.768;2023-04-02T00:44:58;98750.41;;;10.69;61.41
71151;BME280;59071;42.138;24.768;2023-04-02T00:47:25;98759.91;;;10.76;61.50
71151;BME280;59071;42.138;24.768;2023-04-02T00:50:03;98756.47;;;10.88;60.52
71151;BME280;59071;42.138;24.768;2023-04-02T00:52:31;98763.13;;;10.67;61.73
71151;BME280;59071;42.138;24.768;2023-04-02T00:54:59;98765.03;;;10.48;62.85
71151;BME280;59071;42.138;24.768;2023-04-02T00:57:27;98763.31;;;10.53;62.03
71151;BME280;59071;42.138;24.768;2023-04-02T00:59:58;98756.00;;;10.49;62.73
71151;BME280;59071;42.138;24.768;2023-04-02T01:02:28;98750.28;;;10.33;62.97
71151;BME280;59071;42.138;24.768;2023-04-02T01:04:55;98746.75;;;10.40;62.70
71151;BME280;59071;42.138;24.768;2023-04-02T01:07:28;98749.16;;;10.41;63.21
71151;BME280;59071;42.138;24.768;2023-04-02T01:25:06;98737.47;;;10.12;62.45
71151;BME280;59071;42.138;24.768;2023-04-02T01:27:44;98768.91;;;10.33;62.63
71151;BME280;59071;42.138;24.768;2023-04-02T01:30:11;98762.03;;;10.26;62.89
71151;BME280;59071;42.138;24.768;2023-04-02T01:32:38;98763.50;;;10.40;62.13
71151;BME280;59071;42.138;24.768;2023-04-02T01:35:05;98766.03;;;10.35;62.06
71151;BME280;59071;42.138;24.768;2023-04-02T01:40:22;98766.91;;;10.29;61.67
71151;BME280;59071;42.138;24.768;2023-04-02T01:45:35;98770.38;;;10.48;61.59
71151;BME280;59071;42.138;24.768;2023-04-02T01:48:04;98777.63;;;10.22;61.92
71151;BME280;59071;42.138;24.768;2023-04-02T01:53:05;98779.28;;;10.53;61.22
71151;BME280;59071;42.138;24.768;2023-04-02T01:55:33;98772.59;;;10.51;61.19
71151;BME280;59071;42.138;24.768;2023-04-02T01:57:59;98775.31;;;10.44;61.37
71151;BME280;59071;42.138;24.768;2023-04-02T02:00:26;98769.63;;;10.41;60.77
71151;BME280;59071;42.138;24.768;2023-04-02T02:02:54;98763.31;;;10.53;60.47
71151;BME280;59071;42.138;24.768;2023-04-02T02:05:20;98772.97;;;10.17;61.28
71151;BME280;59071;42.138;24.768;2023-04-02T02:07:47;98760.53;;;10.30;60.93
71151;BME280;59071;42.138;24.768;2023-04-02T02:10:13;98763.41;;;10.47;60.66
71151;BME280;59071;42.138;24.768;2023-04-02T02:12:40;98760.59;;;10.72;59.72
71151;BME280;59071;42.138;24.768;2023-04-02T02:15:15;98755.22;;;10.60;59.58
71151;BME280;59071;42.138;24.768;2023-04-02T02:17:41;98750.84;;;10.66;59.56
71151;BME280;59071;42.138;24.768;2023-04-02T02:20:07;98754.00;;;10.63;59.83
71151;BME280;59071;42.138;24.768;2023-04-02T02:22:36;98746.25;;;10.73;59.17
71151;BME280;59071;42.138;24.768;2023-04-02T02:25:04;98741.00;;;10.54;60.46
71151;BME280;59071;42.138;24.768;2023-04-02T02:30:13;98739.22;;;10.18;61.30
71151;BME280;59071;42.138;24.768;2023-04-02T02:32:43;98738.84;;;10.33;60.87
71151;BME280;59071;42.138;24.768;2023-04-02T02:35:11;98748.47;;;10.15;61.52
71151;BME280;59071;42.138;24.768;2023-04-02T02:37:42;98743.91;;;10.53;60.00
71151;BME280;59071;42.138;24.768;2023-04-02T02:40:10;98749.59;;;10.68;59.11
71151;BME280;59071;42.138;24.768;2023-04-02T02:42:41;98753.19;;;10.74;59.08
71151;BME280;59071;42.138;24.768;2023-04-02T02:45:14;98748.34;;;10.83;58.60
71151;BME280;59071;42.138;24.768;2023-04-02T02:47:42;98754.44;;;10.71;59.22
71151;BME280;59071;42.138;24.768;2023-04-02T02:50:12;98762.06;;;10.68;58.82
71151;BME280;59071;42.138;24.768;2023-04-02T02:52:44;98759.19;;;10.69;59.24
71151;BME280;59071;42.138;24.768;2023-04-02T02:55:17;98749.28;;;11.00;58.14
71151;BME280;59071;42.138;24.768;2023-04-02T02:57:45;98748.16;;;11.20;57.99
71151;BME280;59071;42.138;24.768;2023-04-02T03:00:12;98744.66;;;11.07;58.11
71151;BME280;59071;42.138;24.768;2023-04-02T03:02:40;98753.72;;;11.18;58.01
71151;BME280;59071;42.138;24.768;2023-04-02T03:05:05;98752.56;;;11.14;57.54
71151;BME280;59071;42.138;24.768;2023-04-02T03:07:31;98761.44;;;11.08;57.83
71151;BME280;59071;42.138;24.768;2023-04-02T03:12:46;98751.16;;;11.00;57.81
71151;BME280;59071;42.138;24.768;2023-04-02T03:15:31;98750.78;;;10.96;58.48
71151;BME280;59071;42.138;24.768;2023-04-02T03:20:57;98758.75;;;10.84;59.46
71151;BME280;59071;42.138;24.768;2023-04-02T03:23:29;98755.09;;;10.97;59.52
71151;BME280;59071;42.138;24.768;2023-04-02T03:28:27;98761.22;;;10.98;58.98
71151;BME280;59071;42.138;24.768;2023-04-02T03:31:07;98767.78;;;10.83;60.84
71151;BME280;59071;42.138;24.768;2023-04-02T03:33:37;98771.19;;;10.60;62.22
71151;BME280;59071;42.138;24.768;2023-04-02T03:36:25;98776.09;;;10.75;61.76
71151;BME280;59071;42.138;24.768;2023-04-02T03:42:16;98786.22;;;10.54;62.40
71151;BME280;59071;42.138;24.768;2023-04-02T03:44:23;98783.31;;;10.44;63.13
71151;BME280;59071;42.138;24.768;2023-04-02T03:46:57;98785.13;;;10.32;63.92
71151;BME280;59071;42.138;24.768;2023-04-02T03:54:35;98784.44;;;10.36;64.38
71151;BME280;59071;42.138;24.768;2023-04-02T03:57:01;98779.84;;;10.44;63.43
71151;BME280;59071;42.138;24.768;2023-04-02T03:59:29;98778.59;;;10.58;62.73
71151;BME280;59071;42.138;24.768;2023-04-02T04:01:59;98773.03;;;10.48;63.47
71151;BME280;59071;42.138;24.768;2023-04-02T04:04:27;98779.44;;;10.59;62.75
71151;BME280;59071;42.138;24.768;2023-04-02T04:06:53;98784.59;;;10.53;62.46
71151;BME280;59071;42.138;24.768;2023-04-02T04:09:30;98786.53;;;10.28;63.63
71151;BME280;59071;42.138;24.768;2023-04-02T04:12:39;98782.56;;;10.37;62.96
71151;BME280;59071;42.138;24.768;2023-04-02T04:14:47;98781.00;;;10.29;63.95
71151;BME280;59071;42.138;24.768;2023-04-02T04:17:16;98785.78;;;10.57;62.81
71151;BME280;59071;42.138;24.768;2023-04-02T04:20:30;98783.63;;;10.66;62.23
71151;BME280;59071;42.138;24.768;2023-04-02T04:22:36;98785.06;;;10.50;62.43
71151;BME280;59071;42.138;24.768;2023-04-02T04:25:05;98784.78;;;10.22;62.94
71151;BME280;59071;42.138;24.768;2023-04-02T04:27:39;98786.84;;;10.68;61.15
71151;BME280;59071;42.138;24.768;2023-04-02T04:32:38;98793.75;;;10.57;61.66
71151;BME280;59071;42.138;24.768;2023-04-02T04:37:53;98799.44;;;10.61;61.11
71151;BME280;59071;42.138;24.768;2023-04-02T04:40:25;98796.19;;;11.01;60.25
71151;BME280;59071;42.138;24.768;2023-04-02T04:42:53;98797.66;;;10.85;60.53
71151;BME280;59071;42.138;24.768;2023-04-02T04:47:49;98796.56;;;10.63;60.83
71151;BME280;59071;42.138;24.768;2023-04-02T04:50:32;98795.88;;;10.79;61.06
71151;BME280;59071;42.138;24.768;2023-04-02T04:53:05;98793.59;;;10.83;60.97
71151;BME280;59071;42.138;24.768;2023-04-02T04:55:35;98798.69;;;10.84;60.70
71151;BME280;59071;42.138;24.768;2023-04-02T04:58:13;98802.88;;;11.04;59.65
71151;BME280;59071;42.138;24.768;2023-04-02T05:03:16;98805.00;;;11.37;58.08
71151;BME280;59071;42.138;24.768;2023-04-02T05:05:44;98805.25;;;11.35;58.46
71151;BME280;59071;42.138;24.768;2023-04-02T05:08:18;98806.75;;;11.31;57.81
71151;BME280;59071;42.138;24.768;2023-04-02T05:10:49;98819.50;;;11.29;57.56
71151;BME280;59071;42.138;24.768;2023-04-02T05:13:21;98815.22;;;11.52;57.51
71151;BME280;59071;42.138;24.768;2023-04-02T05:15:59;98812.16;;;11.25;57.89
71151;BME280;59071;42.138;24.768;2023-04-02T05:19:11;98814.97;;;11.42;57.66
71151;BME280;59071;42.138;24.768;2023-04-02T05:23:47;98819.13;;;11.61;57.01
71151;BME280;59071;42.138;24.768;2023-04-02T05:26:17;98830.38;;;11.63;56.57
71151;BME280;59071;42.138;24.768;2023-04-02T05:31:16;98829.22;;;11.59;56.57
71151;BME280;59071;42.138;24.768;2023-04-02T05:33:46;98824.69;;;11.71;56.37
71151;BME280;59071;42.138;24.768;2023-04-02T05:36:20;98825.41;;;11.79;55.89
71151;BME280;59071;42.138;24.768;2023-04-02T05:38:46;98837.00;;;11.96;55.92
71151;BME280;59071;42.138;24.768;2023-04-02T05:43:42;98836.25;;;12.12;55.69
71151;BME280;59071;42.138;24.768;2023-04-02T05:46:32;98837.88;;;12.13;55.95
71151;BME280;59071;42.138;24.768;2023-04-02T05:48:57;98833.00;;;12.22;55.85
71151;BME280;59071;42.138;24.768;2023-04-02T05:51:25;98831.31;;;12.62;54.52
71151;BME280;59071;42.138;24.768;2023-04-02T05:53:52;98834.28;;;12.77;54.54
71151;BME280;59071;42.138;24.768;2023-04-02T05:56:21;98838.22;;;13.03;52.91
71151;BME280;59071;42.138;24.768;2023-04-02T05:58:59;98841.00;;;12.80;53.30
71151;BME280;59071;42.138;24.768;2023-04-02T06:04:03;98842.50;;;13.04;52.59
71151;BME280;59071;42.138;24.768;2023-04-02T06:09:30;98852.72;;;13.75;50.28
71151;BME280;59071;42.138;24.768;2023-04-02T06:12:03;98848.88;;;13.88;49.28
71151;BME280;59071;42.138;24.768;2023-04-02T06:14:32;98852.78;;;13.80;49.18
71151;BME280;59071;42.138;24.768;2023-04-02T06:16:57;98851.28;;;13.89;49.07
71151;BME280;59071;42.138;24.768;2023-04-02T06:19:24;98853.88;;;13.45;49.83
71151;BME280;59071;42.138;24.768;2023-04-02T06:21:51;98850.94;;;13.81;49.51
71151;BME280;59071;42.138;24.768;2023-04-02T06:24:21;98859.59;;;14.10;48.46
71151;BME280;59071;42.138;24.768;2023-04-02T06:26:50;98853.31;;;13.99;49.42
71151;BME280;59071;42.138;24.768;2023-04-02T06:29:30;98863.88;;;13.89;49.50
71151;BME280;59071;42.138;24.768;2023-04-02T06:32:01;98867.31;;;14.06;49.31
71151;BME280;59071;42.138;24.768;2023-04-02T06:34:27;98866.75;;;14.48;48.52
71151;BME280;59071;42.138;24.768;2023-04-02T06:36:57;98878.22;;;14.44;50.70
71151;BME280;59071;42.138;24.768;2023-04-02T06:39:23;98876.97;;;14.74;48.78
71151;BME280;59071;42.138;24.768;2023-04-02T06:41:59;98893.56;;;14.98;47.72
71151;BME280;59071;42.138;24.768;2023-04-02T06:44:26;98882.22;;;14.91;46.70
71151;BME280;59071;42.138;24.768;2023-04-02T06:46:55;98886.13;;;14.78;46.29
71151;BME280;59071;42.138;24.768;2023-04-02T06:51:47;98884.47;;;14.99;46.90
71151;BME280;59071;42.138;24.768;2023-04-02T06:54:15;98880.41;;;14.69;46.11
71151;BME280;59071;42.138;24.768;2023-04-02T06:56:48;98887.38;;;14.70;46.52
71151;BME280;59071;42.138;24.768;2023-04-02T06:59:15;98883.34;;;14.95;46.23
71151;BME280;59071;42.138;24.768;2023-04-02T07:01:46;98889.81;;;14.99;45.51
71151;BME280;59071;42.138;24.768;2023-04-02T07:04:12;98897.03;;;15.25;45.43
71151;BME280;59071;42.138;24.768;2023-04-02T07:06:38;98889.69;;;14.89;45.19
71151;BME280;59071;42.138;24.768;2023-04-02T07:09:03;98892.84;;;15.08;45.45
71151;BME280;59071;42.138;24.768;2023-04-02T07:11:29;98898.44;;;15.33;45.15
71151;BME280;59071;42.138;24.768;2023-04-02T07:13:54;98896.78;;;15.59;45.23
71151;BME280;59071;42.138;24.768;2023-04-02T07:16:20;98903.09;;;15.75;44.29
71151;BME280;59071;42.138;24.768;2023-04-02T07:18:46;98904.13;;;15.74;42.43
71151;BME280;59071;42.138;24.768;2023-04-02T07:21:12;98898.56;;;15.81;42.71
71151;BME280;59071;42.138;24.768;2023-04-02T07:23:38;98911.94;;;15.76;43.54
71151;BME280;59071;42.138;24.768;2023-04-02T07:26:03;98908.69;;;16.11;42.75
71151;BME280;59071;42.138;24.768;2023-04-02T07:28:29;98915.00;;;15.90;43.61
71151;BME280;59071;42.138;24.768;2023-04-02T07:30:55;98914.16;;;15.89;42.99
71151;BME280;59071;42.138;24.768;2023-04-02T07:33:22;98918.25;;;15.59;43.48
71151;BME280;59071;42.138;24.768;2023-04-02T07:35:48;98914.91;;;15.47;44.47
71151;BME280;59071;42.138;24.768;2023-04-02T07:38:13;98914.78;;;15.64;42.87
71151;BME280;59071;42.138;24.768;2023-04-02T07:40:38;98917.03;;;15.77;43.78
71151;BME280;59071;42.138;24.768;2023-04-02T07:43:04;98916.19;;;16.09;44.01
71151;BME280;59071;42.138;24.768;2023-04-02T07:45:29;98916.47;;;16.76;42.62
71151;BME280;59071;42.138;24.768;2023-04-02T07:47:55;98911.81;;;16.46;41.32
71151;BME280;59071;42.138;24.768;2023-04-02T07:50:20;98918.56;;;16.06;40.73
71151;BME280;59071;42.138;24.768;2023-04-02T07:52:46;98910.56;;;16.11;41.17
71151;BME280;59071;42.138;24.768;2023-04-02T07:55:12;98907.16;;;16.99;40.58
71151;BME280;59071;42.138;24.768;2023-04-02T07:57:38;98907.75;;;17.22;39.82
71151;BME280;59071;42.138;24.768;2023-04-02T08:00:07;98903.44;;;17.46;38.76
71151;BME280;59071;42.138;24.768;2023-04-02T08:02:34;98898.66;;;16.54;39.27
71151;BME280;59071;42.138;24.768;2023-04-02T08:04:59;98891.84;;;17.05;40.04
71151;BME280;59071;42.138;24.768;2023-04-02T08:07:26;98895.91;;;17.84;38.56
71151;BME280;59071;42.138;24.768;2023-04-02T08:09:51;98892.94;;;17.09;38.92
71151;BME280;59071;42.138;24.768;2023-04-02T08:12:16;98903.72;;;17.50;37.89
71151;BME280;59071;42.138;24.768;2023-04-02T08:14:42;98897.78;;;17.32;38.33
71151;BME280;59071;42.138;24.768;2023-04-02T08:17:07;98900.16;;;18.11;37.33
71151;BME280;59071;42.138;24.768;2023-04-02T08:19:32;98895.19;;;18.49;36.33
71151;BME280;59071;42.138;24.768;2023-04-02T08:21:59;98904.97;;;18.19;36.70
71151;BME280;59071;42.138;24.768;2023-04-02T08:24:24;98900.19;;;17.65;37.63
71151;BME280;59071;42.138;24.768;2023-04-02T08:26:49;98895.63;;;17.60;37.35
71151;BME280;59071;42.138;24.768;2023-04-02T08:29:17;98900.66;;;18.23;35.79
71151;BME280;59071;42.138;24.768;2023-04-02T08:31:42;98901.03;;;17.50;36.62
71151;BME280;59071;42.138;24.768;2023-04-02T08:34:08;98886.25;;;17.42;36.71
71151;BME280;59071;42.138;24.768;2023-04-02T08:36:34;98889.16;;;17.97;36.07
71151;BME280;59071;42.138;24.768;2023-04-02T08:39:00;98896.41;;;19.22;34.58
71151;BME280;59071;42.138;24.768;2023-04-02T08:41:26;98889.88;;;18.88;34.89
71151;BME280;59071;42.138;24.768;2023-04-02T08:48:46;98895.22;;;19.72;32.97
71151;BME280;59071;42.138;24.768;2023-04-02T08:51:26;98892.28;;;19.34;32.53
71151;BME280;59071;42.138;24.768;2023-04-02T08:53:56;98882.94;;;19.22;33.06
71151;BME280;59071;42.138;24.768;2023-04-02T08:59:01;98876.97;;;20.61;30.81
71151;BME280;59071;42.138;24.768;2023-04-02T09:04:15;98880.47;;;19.89;31.78
71151;BME280;59071;42.138;24.768;2023-04-02T09:06:42;98871.81;;;20.16;31.38
71151;BME280;59071;42.138;24.768;2023-04-02T09:09:09;98872.41;;;20.37;30.70
71151;BME280;59071;42.138;24.768;2023-04-02T09:14:07;98870.59;;;21.27;29.42
71151;BME280;59071;42.138;24.768;2023-04-02T09:16:45;98867.03;;;21.79;28.79
71151;BME280;59071;42.138;24.768;2023-04-02T09:21:41;98851.47;;;21.38;29.66
71151;BME280;59071;42.138;24.768;2023-04-02T09:24:10;98863.22;;;21.66;29.32
71151;BME280;59071;42.138;24.768;2023-04-02T09:26:37;98855.81;;;21.85;29.33
71151;BME280;59071;42.138;24.768;2023-04-02T09:31:35;98851.97;;;22.70;28.59
71151;BME280;59071;42.138;24.768;2023-04-02T09:34:01;98855.81;;;23.28;27.92
71151;BME280;59071;42.138;24.768;2023-04-02T09:36:46;98852.66;;;22.75;28.46
71151;BME280;59071;42.138;24.768;2023-04-02T09:39:15;98839.47;;;22.60;29.68
71151;BME280;59071;42.138;24.768;2023-04-02T09:41:41;98842.47;;;22.95;28.52
71151;BME280;59071;42.138;24.768;2023-04-02T09:44:22;98843.84;;;23.29;27.76
71151;BME280;59071;42.138;24.768;2023-04-02T09:46:55;98838.66;;;23.41;27.57
71151;BME280;59071;42.138;24.768;2023-04-02T09:49:24;98832.44;;;23.40;27.04
71151;BME280;59071;42.138;24.768;2023-04-02T09:54:34;98835.03;;;23.23;26.74
71151;BME280;59071;42.138;24.768;2023-04-02T09:57:15;98828.53;;;23.64;26.61
71151;BME280;59071;42.138;24.768;2023-04-02T09:59:41;98832.41;;;24.69;25.20
71151;BME280;59071;42.138;24.768;2023-04-02T10:02:26;98833.41;;;24.16;25.88
71151;BME280;59071;42.138;24.768;2023-04-02T10:04:53;98825.69;;;24.00;26.40
71151;BME280;59071;42.138;24.768;2023-04-02T10:12:46;98809.88;;;23.09;25.71
71151;BME280;59071;42.138;24.768;2023-04-02T10:15:14;98810.25;;;23.47;25.04
71151;BME280;59071;42.138;24.768;2023-04-02T10:17:41;98808.41;;;23.34;24.98
71151;BME280;59071;42.138;24.768;2023-04-02T10:20:13;98799.06;;;23.40;24.40
71151;BME280;59071;42.138;24.768;2023-04-02T10:22:41;98798.88;;;23.36;24.36
71151;BME280;59071;42.138;24.768;2023-04-02T10:25:14;98797.59;;;24.05;23.41
71151;BME280;59071;42.138;24.768;2023-04-02T10:27:50;98800.22;;;25.06;22.99
71151;BME280;59071;42.138;24.768;2023-04-02T10:30:25;98791.09;;;25.11;22.57
71151;BME280;59071;42.138;24.768;2023-04-02T10:32:59;98792.41;;;24.61;23.23
71151;BME280;59071;42.138;24.768;2023-04-02T10:35:41;98789.34;;;24.97;22.80
71151;BME280;59071;42.138;24.768;2023-04-02T10:38:13;98789.06;;;24.82;22.29
71151;BME280;59071;42.138;24.768;2023-04-02T10:40:47;98792.38;;;25.05;22.13
71151;BME280;59071;42.138;24.768;2023-04-02T10:45:45;98793.50;;;24.86;22.26
71151;BME280;59071;42.138;24.768;2023-04-02T10:53:19;98777.81;;;25.01;22.42
71151;BME280;59071;42.138;24.768;2023-04-02T10:56:04;98774.31;;;24.83;22.94
71151;BME280;59071;42.138;24.768;2023-04-02T10:58:34;98770.50;;;25.96;22.01
71151;BME280;59071;42.138;24.768;2023-04-02T11:01:06;98770.13;;;26.27;22.34
71151;BME280;59071;42.138;24.768;2023-04-02T11:03:34;98750.47;;;25.53;21.60
71151;BME280;59071;42.138;24.768;2023-04-02T11:06:03;98761.47;;;25.27;21.03
71151;BME280;59071;42.138;24.768;2023-04-02T11:08:45;98755.09;;;24.88;21.21
71151;BME280;59071;42.138;24.768;2023-04-02T11:16:10;98752.41;;;25.52;21.77
71151;BME280;59071;42.138;24.768;2023-04-02T11:18:36;98749.53;;;25.49;21.46
71151;BME280;59071;42.138;24.768;2023-04-02T11:23:56;98748.88;;;24.87;22.16
71151;BME280;59071;42.138;24.768;2023-04-02T11:26:30;98745.41;;;25.34;21.59
71151;BME280;59071;42.138;24.768;2023-04-02T11:31:41;98737.75;;;25.18;21.90
71151;BME280;59071;42.138;24.768;2023-04-02T11:34:11;98736.47;;;25.33;21.76
71151;BME280;59071;42.138;24.768;2023-04-02T11:39:14;98731.63;;;24.66;22.70
71151;BME280;59071;42.138;24.768;2023-04-02T11:42:01;98726.34;;;25.34;22.19
71151;BME280;59071;42.138;24.768;2023-04-02T11:44:26;98713.75;;;26.19;21.75
71151;BME280;59071;42.138;24.768;2023-04-02T11:46:52;98715.34;;;25.30;22.45
71151;BME280;59071;42.138;24.768;2023-04-02T11:49:38;98716.06;;;24.75;22.97
71151;BME280;59071;42.138;24.768;2023-04-02T11:52:04;98713.34;;;24.84;22.32
71151;BME280;59071;42.138;24.768;2023-04-02T11:54:42;98702.44;;;25.48;22.14
71151;BME280;59071;42.138;24.768;2023-04-02T12:02:24;98708.78;;;25.14;22.35
71151;BME280;59071;42.138;24.768;2023-04-02T12:12:41;98700.00;;;26.90;20.42
71151;BME280;59071;42.138;24.768;2023-04-02T12:15:00;98704.31;;;26.16;21.19
71151;BME280;59071;42.138;24.768;2023-04-02T12:22:30;98698.47;;;26.05;21.64
71151;BME280;59071;42.138;24.768;2023-04-02T12:24:59;98699.06;;;26.11;21.64
71151;BME280;59071;42.138;24.768;2023-04-02T12:27:26;98691.63;;;25.99;22.36
71151;BME280;59071;42.138;24.768;2023-04-02T12:29:53;98686.34;;;26.15;21.26
71151;BME280;59071;42.138;24.768;2023-04-02T12:32:28;98696.19;;;26.28;21.81
71151;BME280;59071;42.138;24.768;2023-04-02T12:34:54;98694.53;;;26.36;21.64
71151;BME280;59071;42.138;24.768;2023-04-02T12:37:29;98698.63;;;26.42;21.28
71151;BME280;59071;42.138;24.768;2023-04-02T12:40:00;98700.84;;;26.28;21.29
71151;BME280;59071;42.138;24.768;2023-04-02T12:42:36;98687.72;;;26.42;21.20
71151;BME280;59071;42.138;24.768;2023-04-02T12:45:02;98694.19;;;25.96;21.12
71151;BME280;59071;42.138;24.768;2023-04-02T12:47:28;98685.38;;;25.90;21.43
71151;BME280;59071;42.138;24.768;2023-04-02T12:49:54;98685.84;;;26.22;21.04
71151;BME280;59071;42.138;24.768;2023-04-02T12:52:21;98684.88;;;26.18;21.44
71151;BME280;59071;42.138;24.768;2023-04-02T12:57:21;98684.75;;;26.14;21.51
71151;BME280;59071;42.138;24.768;2023-04-02T12:59:47;98685.75;;;26.09;21.63
71151;BME280;59071;42.138;24.768;2023-04-02T13:02:20;98684.88;;;26.18;21.76
71151;BME280;59071;42.138;24.768;2023-04-02T13:04:49;98680.75;;;26.87;20.98
71151;BME280;59071;42.138;24.768;2023-04-02T13:07:16;98686.78;;;27.38;20.79
71151;BME280;59071;42.138;24.768;2023-04-02T13:09:46;98672.97;;;26.64;21.19
71151;BME280;59071;42.138;24.768;2023-04-02T13:12:25;98677.28;;;26.65;21.21
71151;BME280;59071;42.138;24.768;2023-04-02T13:14:52;98678.06;;;27.24;20.55
71151;BME280;59071;42.138;24.768;2023-04-02T13:22:46;98678.63;;;27.05;20.88
71151;BME280;59071;42.138;24.768;2023-04-02T13:25:11;98675.28;;;26.53;21.30
71151;BME280;59071;42.138;24.768;2023-04-02T13:27:36;98678.38;;;26.98;21.19
71151;BME280;59071;42.138;24.768;2023-04-02T13:30:35;98675.94;;;27.54;20.59
71151;BME280;59071;42.138;24.768;2023-04-02T13:32:54;98672.50;;;27.94;19.83
71151;BME280;59071;42.138;24.768;2023-04-02T13:35:19;98666.16;;;27.90;19.98
71151;BME280;59071;42.138;24.768;2023-04-02T13:37:45;98664.00;;;27.71;20.41
71151;BME280;59071;42.138;24.768;2023-04-02T13:40:11;98668.22;;;27.68;19.99
71151;BME280;59071;42.138;24.768;2023-04-02T13:42:37;98667.28;;;27.15;20.98
71151;BME280;59071;42.138;24.768;2023-04-02T13:45:03;98669.16;;;26.90;21.20
71151;BME280;59071;42.138;24.768;2023-04-02T13:47:29;98666.78;;;27.01;21.37
71151;BME280;59071;42.138;24.768;2023-04-02T13:49:54;98658.47;;;26.30;21.88
71151;BME280;59071;42.138;24.768;2023-04-02T13:52:20;98654.75;;;26.14;21.82
71151;BME280;59071;42.138;24.768;2023-04-02T13:54:48;98656.97;;;26.21;22.49
71151;BME280;59071;42.138;24.768;2023-04-02T13:57:15;98660.47;;;25.49;22.95
71151;BME280;59071;42.138;24.768;2023-04-02T13:59:40;98662.25;;;25.45;22.96
71151;BME280;59071;42.138;24.768;2023-04-02T14:02:10;98661.03;;;25.64;23.19
71151;BME280;59071;42.138;24.768;2023-04-02T14:04:39;98653.28;;;25.74;22.84
71151;BME280;59071;42.138;24.768;2023-04-02T14:12:10;98658.56;;;24.94;23.31
71151;BME280;59071;42.138;24.768;2023-04-02T14:14:50;98658.19;;;25.13;22.90
71151;BME280;59071;42.138;24.768;2023-04-02T14:17:22;98662.34;;;25.58;22.52
71151;BME280;59071;42.138;24.768;2023-04-02T14:32:30;98650.28;;;25.38;23.03
71151;BME280;59071;42.138;24.768;2023-04-02T14:35:02;98655.34;;;25.48;22.79
71151;BME280;59071;42.138;24.768;2023-04-02T14:37:38;98658.81;;;25.18;22.96
71151;BME280;59071;42.138;24.768;2023-04-02T14:40:13;98658.44;;;25.38;23.00
71151;BME280;59071;42.138;24.768;2023-04-02T14:42:44;98659.19;;;25.77;22.42
71151;BME280;59071;42.138;24.768;2023-04-02T14:45:34;98661.78;;;25.43;22.67
71151;BME280;59071;42.138;24.768;2023-04-02T14:48:00;98653.22;;;24.42;23.40
71151;BME280;59071;42.138;24.768;2023-04-02T14:50:32;98664.25;;;23.35;24.71
71151;BME280;59071;42.138;24.768;2023-04-02T14:53:03;98658.91;;;23.70;24.34
71151;BME280;59071;42.138;24.768;2023-04-02T14:55:35;98656.28;;;24.31;23.97
71151;BME280;59071;42.138;24.768;2023-04-02T14:58:04;98652.44;;;24.32;23.82
71151;BME280;59071;42.138;24.768;2023-04-02T15:00:42;98656.75;;;24.16;23.41
71151;BME280;59071;42.138;24.768;2023-04-02T15:08:04;98656.44;;;24.17;23.56
71151;BME280;59071;42.138;24.768;2023-04-02T15:13:14;98657.03;;;23.71;24.43
71151;BME280;59071;42.138;24.768;2023-04-02T15:15:48;98660.28;;;24.16;24.00
71151;BME280;59071;42.138;24.768;2023-04-02T15:18:20;98668.44;;;24.60;23.70
71151;BME280;59071;42.138;24.768;2023-04-02T15:23:17;98666.66;;;24.29;23.62
71151;BME280;59071;42.138;24.768;2023-04-02T15:25:47;98672.09;;;24.12;23.90
71151;BME280;59071;42.138;24.768;2023-04-02T15:28:38;98672.56;;;24.14;23.72
71151;BME280;59071;42.138;24.768;2023-04-02T15:31:02;98673.84;;;23.41;24.46
71151;BME280;59071;42.138;24.768;2023-04-02T15:33:42;98676.09;;;23.39;24.27
71151;BME280;59071;42.138;24.768;2023-04-02T15:36:19;98678.19;;;23.11;24.28
71151;BME280;59071;42.138;24.768;2023-04-02T15:41:23;98684.22;;;23.31;24.11
71151;BME280;59071;42.138;24.768;2023-04-02T15:51:35;98687.59;;;22.82;23.67
71151;BME280;59071;42.138;24.768;2023-04-02T15:54:11;98696.00;;;22.72;23.96
71151;BME280;59071;42.138;24.768;2023-04-02T15:56:56;98691.53;;;22.99;23.69
71151;BME280;59071;42.138;24.768;2023-04-02T16:02:26;98699.56;;;22.81;23.28
71151;BME280;59071;42.138;24.768;2023-04-02T16:05:00;98704.59;;;22.29;23.82
71151;BME280;59071;42.138;24.768;2023-04-02T16:10:08;98707.59;;;22.87;23.09
71151;BME280;59071;42.138;24.768;2023-04-02T16:12:36;98706.72;;;23.00;22.86